Hickory, North Carolina
Current Conditions -  °F | °C
As of 3:53 PM on Monday 20 Oct 2014 (Local Time) from KHKY Reporting Station
Few Clouds Few Clouds  
Wind Chill: 68°   Ceiling: Unl
Heat Index: 68°   Visibility: 10mi
Dew Point: 48°   Wind: 6mph
Humidity: 49%   Direction: NA
Pressure: 29.99"   Gusts: NA
Location:  35.74°N, 81.33°W
Report Text: KHKY 201953Z AUTO VRB05KT 10SM FEW045 20/09 A2999 RMK AO2 SLP141 T02000089
Loading
Personal Weather Stations






























Interactive Weather Map New forecast layout! Learn more

10-Day Weather Forecast

Advertisements
Track Severe Weather on mobile